Time;durP1;ratioP1;P1;durP2;ratioP2;P2;SDS_P1;SDS_P2;PMS_P1;PMS_P2;Temp;Humidity;BMP_temperature;BMP_pressure;BME280_temperature;BME280_humidity;BME280_pressure;Samples;Min_cycle;Max_cycle;Signal;HPM_P1;HPM_P2
2021/05/29 00:01:11;;;;;;;10.77;7.20;;;;;;;;;;5061115;28;20282;-75
2021/05/29 00:03:38;;;;;;;8.07;6.90;;;;;;;;;;5093906;28;20286;-75
2021/05/29 00:06:05;;;;;;;7.67;6.97;;;;;;;;;;5093867;28;20289;-75
2021/05/29 00:08:31;;;;;;;8.27;6.43;;;;;;;;;;5091628;28;20254;-75
2021/05/29 00:11:02;;;;;;;7.50;6.80;;;;;;;;;;5081010;28;20226;-75
2021/05/29 00:13:30;;;;;;;7.57;6.87;;;;;;;;;;5092976;28;20334;-74
2021/05/29 00:15:57;;;;;;;10.17;7.20;;;;;;;;;;5093136;28;20217;-75
2021/05/29 00:18:25;;;;;;;7.90;7.10;;;;;;;;;;5093545;28;20277;-75
2021/05/29 00:20:52;;;;;;;7.60;6.80;;;;;;;;;;5092594;28;20202;-74
2021/05/29 00:23:19;;;;;;;9.43;7.47;;;;;;;;;;5089908;28;20204;-75
2021/05/29 00:25:46;;;;;;;8.33;7.43;;;;;;;;;;5073289;28;20229;-75
2021/05/29 00:28:14;;;;;;;9.50;7.57;;;;;;;;;;5084125;28;20230;-75
2021/05/29 00:30:42;;;;;;;8.00;7.20;;;;;;;;;;5085029;28;20202;-75
2021/05/29 00:33:09;;;;;;;9.77;7.53;;;;;;;;;;5088140;28;20237;-75
2021/05/29 00:35:36;;;;;;;8.17;7.07;;;;;;;;;;5092848;28;20300;-75
2021/05/29 00:38:03;;;;;;;7.73;6.83;;;;;;;;;;5093174;28;20284;-75
2021/05/29 00:40:30;;;;;;;7.17;6.30;;;;;;;;;;5074695;28;20306;-75
2021/05/29 00:42:57;;;;;;;7.83;6.97;;;;;;;;;;5076259;28;20290;-75
2021/05/29 00:45:27;;;;;;;7.33;6.63;;;;;;;;;;5092350;28;20607;-75
2021/05/29 00:47:53;;;;;;;8.13;6.67;;;;;;;;;;5073096;28;20199;-75
2021/05/29 00:50:20;;;;;;;11.37;7.23;;;;;;;;;;5077014;28;20197;-74
2021/05/29 00:52:47;;;;;;;8.57;7.10;;;;;;;;;;5092116;28;20286;-75
2021/05/29 00:55:15;;;;;;;7.83;6.43;;;;;;;;;;5084098;28;20298;-75
2021/05/29 00:57:43;;;;;;;7.90;7.10;;;;;;;;;;5089625;28;20713;-75
2021/05/29 01:00:10;;;;;;;7.60;6.90;;;;;;;;;;5089376;28;20235;-75
2021/05/29 01:02:38;;;;;;;7.73;6.77;;;;;;;;;;5072410;28;20290;-75
2021/05/29 01:05:07;;;;;;;8.70;7.10;;;;;;;;;;5090921;28;20297;-78
2021/05/29 01:07:34;;;;;;;7.60;6.90;;;;;;;;;;5093336;28;20288;-78
2021/05/29 01:10:02;;;;;;;9.47;7.57;;;;;;;;;;5092384;28;20308;-78
2021/05/29 01:12:29;;;;;;;7.07;6.47;;;;;;;;;;5092881;28;20230;-78
2021/05/29 01:14:57;;;;;;;7.53;6.50;;;;;;;;;;5091794;28;20677;-78
2021/05/29 01:17:25;;;;;;;7.00;6.30;;;;;;;;;;5075278;28;20696;-78
2021/05/29 01:19:53;;;;;;;6.80;6.20;;;;;;;;;;5074771;28;20194;-78
2021/05/29 01:22:38;;;;;;;7.53;6.50;;;;;;;;;;5090481;28;20226;-78
2021/05/29 01:25:07;;;;;;;8.73;6.53;;;;;;;;;;5092260;28;20280;-78
2021/05/29 01:27:34;;;;;;;7.30;6.30;;;;;;;;;;5087844;28;20310;-78
2021/05/29 01:30:01;;;;;;;7.70;6.63;;;;;;;;;;5092309;28;20250;-78
2021/05/29 01:32:33;;;;;;;7.13;6.43;;;;;;;;;;5092833;28;20254;-77
2021/05/29 01:35:04;;;;;;;9.47;6.37;;;;;;;;;;5092324;28;20198;-78
2021/05/29 01:37:31;;;;;;;7.33;6.63;;;;;;;;;;5083248;28;20918;-78
2021/05/29 01:39:59;;;;;;;7.00;6.30;;;;;;;;;;5072475;28;20230;-79
2021/05/29 01:42:26;;;;;;;8.93;6.50;;;;;;;;;;5076289;28;20706;-79
2021/05/29 01:44:54;;;;;;;6.77;6.07;;;;;;;;;;5091929;28;20251;-78
2021/05/29 01:47:21;;;;;;;6.73;6.00;;;;;;;;;;5092345;28;20285;-78
2021/05/29 01:49:48;;;;;;;6.50;5.90;;;;;;;;;;5092534;28;20253;-78
2021/05/29 01:52:15;;;;;;;9.53;6.37;;;;;;;;;;5091883;28;20241;-78
2021/05/29 01:54:41;;;;;;;9.17;6.93;;;;;;;;;;5092094;28;20293;-78
2021/05/29 01:57:09;;;;;;;7.27;6.13;;;;;;;;;;5082878;28;20340;-78
2021/05/29 01:59:36;;;;;;;8.03;6.70;;;;;;;;;;5076379;28;20722;-78
2021/05/29 02:02:03;;;;;;;7.37;6.60;;;;;;;;;;5086717;28;20638;-78
2021/05/29 02:04:30;;;;;;;7.57;6.87;;;;;;;;;;5075426;28;20278;-78
2021/05/29 02:06:57;;;;;;;7.57;6.77;;;;;;;;;;5072103;28;20282;-78
2021/05/29 02:09:24;;;;;;;7.40;6.63;;;;;;;;;;5071777;28;20725;-78
2021/05/29 02:11:50;;;;;;;7.53;6.57;;;;;;;;;;5072894;28;20620;-78
2021/05/29 02:14:18;;;;;;;7.93;6.10;;;;;;;;;;5075751;28;20709;-78
2021/05/29 02:16:45;;;;;;;8.90;6.87;;;;;;;;;;5091430;28;20229;-78
2021/05/29 02:19:12;;;;;;;9.83;6.67;;;;;;;;;;5092227;28;20297;-78
2021/05/29 02:21:39;;;;;;;7.40;6.70;;;;;;;;;;5087531;28;20244;-79
2021/05/29 02:24:05;;;;;;;8.33;6.43;;;;;;;;;;5084034;28;20604;-77
2021/05/29 02:26:32;;;;;;;7.63;6.30;;;;;;;;;;5080865;28;20254;-78
2021/05/29 02:28:59;;;;;;;7.43;6.37;;;;;;;;;;5087522;28;20315;-78
2021/05/29 02:31:27;;;;;;;6.90;6.20;;;;;;;;;;5089094;28;20198;-78
2021/05/29 02:33:54;;;;;;;8.60;6.57;;;;;;;;;;5092103;28;20273;-78
2021/05/29 02:36:20;;;;;;;10.60;6.63;;;;;;;;;;5088783;28;20281;-78
2021/05/29 02:38:47;;;;;;;7.37;6.67;;;;;;;;;;5090310;28;20262;-78
2021/05/29 02:41:14;;;;;;;7.57;6.67;;;;;;;;;;5082450;28;20244;-78
2021/05/29 02:43:41;;;;;;;7.73;6.77;;;;;;;;;;5075373;28;20686;-78
2021/05/29 02:46:09;;;;;;;8.27;6.63;;;;;;;;;;5080680;28;20234;-78
2021/05/29 02:48:37;;;;;;;7.97;7.03;;;;;;;;;;5078653;28;20299;-78
2021/05/29 02:51:04;;;;;;;9.07;6.47;;;;;;;;;;5083321;28;20205;-78
2021/05/29 02:53:31;;;;;;;8.93;6.57;;;;;;;;;;5091734;28;20233;-78
2021/05/29 02:55:58;;;;;;;9.63;6.60;;;;;;;;;;5087390;28;20214;-78
2021/05/29 02:58:24;;;;;;;8.60;7.23;;;;;;;;;;5081459;28;20275;-78
2021/05/29 03:00:51;;;;;;;7.27;6.10;;;;;;;;;;5091819;28;20288;-78
2021/05/29 03:03:18;;;;;;;9.27;6.63;;;;;;;;;;5074226;28;20291;-78
2021/05/29 03:05:47;;;;;;;7.30;6.60;;;;;;;;;;5075064;28;20203;-78
2021/05/29 03:08:14;;;;;;;8.47;6.47;;;;;;;;;;5082202;28;20230;-78
2021/05/29 03:10:42;;;;;;;8.93;7.10;;;;;;;;;;5087664;28;20286;-78
2021/05/29 03:13:09;;;;;;;7.53;6.63;;;;;;;;;;5076905;28;20562;-78
2021/05/29 03:15:35;;;;;;;7.40;6.70;;;;;;;;;;5071299;28;20679;-78
2021/05/29 03:18:04;;;;;;;9.67;7.20;;;;;;;;;;5073757;28;20309;-78
2021/05/29 03:20:31;;;;;;;10.23;6.77;;;;;;;;;;5081800;28;20197;-78
2021/05/29 03:22:59;;;;;;;8.10;7.00;;;;;;;;;;5076562;28;20242;-78
2021/05/29 03:25:25;;;;;;;9.50;6.53;;;;;;;;;;5074627;28;20291;-77
2021/05/29 03:27:53;;;;;;;6.93;6.23;;;;;;;;;;5074739;28;20247;-77
2021/05/29 03:30:21;;;;;;;8.63;6.30;;;;;;;;;;5077659;28;20239;-77
2021/05/29 03:32:48;;;;;;;7.40;6.50;;;;;;;;;;5074851;28;20245;-78
2021/05/29 03:35:15;;;;;;;7.47;6.37;;;;;;;;;;5074802;28;20285;-78
2021/05/29 03:37:42;;;;;;;7.90;6.57;;;;;;;;;;5086499;28;20262;-77
2021/05/29 03:40:12;;;;;;;7.17;6.47;;;;;;;;;;5086806;28;20249;-78
2021/05/29 03:42:39;;;;;;;7.50;6.40;;;;;;;;;;5094137;28;20198;-78
2021/05/29 03:45:07;;;;;;;7.77;6.43;;;;;;;;;;5094163;28;20233;-78
2021/05/29 03:47:35;;;;;;;7.80;6.10;;;;;;;;;;5093433;28;20305;-78
2021/05/29 03:50:02;;;;;;;7.83;6.30;;;;;;;;;;5094473;28;20796;-78
2021/05/29 03:52:28;;;;;;;8.47;6.30;;;;;;;;;;5094473;28;20644;-78
2021/05/29 03:54:55;;;;;;;6.90;6.20;;;;;;;;;;5093714;28;20288;-78
2021/05/29 03:57:23;;;;;;;10.47;6.70;;;;;;;;;;5084099;28;20245;-78
2021/05/29 03:59:50;;;;;;;7.70;6.30;;;;;;;;;;5094266;28;20201;-77
2021/05/29 04:02:17;;;;;;;9.33;6.57;;;;;;;;;;5094095;28;20285;-78
2021/05/29 04:04:44;;;;;;;7.23;6.10;;;;;;;;;;5093793;28;20225;-77
2021/05/29 04:07:10;;;;;;;8.57;6.53;;;;;;;;;;5094166;28;20237;-78
2021/05/29 04:09:37;;;;;;;8.27;6.13;;;;;;;;;;5094826;28;20366;-78
2021/05/29 04:12:04;;;;;;;7.87;6.30;;;;;;;;;;5093833;28;20240;-78
2021/05/29 04:14:34;;;;;;;8.43;6.47;;;;;;;;;;5094531;28;20656;-78
2021/05/29 04:17:01;;;;;;;7.40;5.63;;;;;;;;;;5084251;28;20206;-78
2021/05/29 04:19:27;;;;;;;8.40;6.73;;;;;;;;;;5075861;28;20605;-78
2021/05/29 04:21:54;;;;;;;7.73;6.40;;;;;;;;;;5075801;28;20285;-78
2021/05/29 04:24:21;;;;;;;8.00;6.40;;;;;;;;;;5087836;28;20212;-77
2021/05/29 04:26:47;;;;;;;8.43;6.47;;;;;;;;;;5092678;28;20252;-78
2021/05/29 04:29:14;;;;;;;7.53;6.27;;;;;;;;;;5075800;28;20759;-78
2021/05/29 04:31:41;;;;;;;9.13;6.47;;;;;;;;;;5073851;28;20228;-78
2021/05/29 04:34:08;;;;;;;8.83;6.77;;;;;;;;;;5072629;28;20610;-78
2021/05/29 04:36:35;;;;;;;6.93;5.93;;;;;;;;;;5091382;28;20225;-78
2021/05/29 04:39:02;;;;;;;8.13;6.53;;;;;;;;;;5093485;28;20756;-77
2021/05/29 04:41:29;;;;;;;7.93;6.00;;;;;;;;;;5089403;28;20289;-78
2021/05/29 04:43:55;;;;;;;8.63;6.77;;;;;;;;;;5077113;28;20662;-77
2021/05/29 04:46:22;;;;;;;7.30;5.90;;;;;;;;;;5077193;28;20226;-77
2021/05/29 04:48:50;;;;;;;10.37;6.63;;;;;;;;;;5066056;28;20209;-78
2021/05/29 04:51:17;;;;;;;8.03;6.37;;;;;;;;;;5074260;28;20294;-78
2021/05/29 04:53:44;;;;;;;8.80;5.87;;;;;;;;;;5085717;28;20195;-78
2021/05/29 04:56:11;;;;;;;9.13;6.53;;;;;;;;;;5073466;28;20289;-78
2021/05/29 04:58:38;;;;;;;9.70;6.87;;;;;;;;;;5085654;28;20290;-77
2021/05/29 05:01:07;;;;;;;8.03;6.57;;;;;;;;;;5093272;28;20292;-78
2021/05/29 05:03:33;;;;;;;6.70;5.90;;;;;;;;;;5092358;28;20205;-78
2021/05/29 05:06:01;;;;;;;10.23;6.77;;;;;;;;;;5075869;28;20388;-78
2021/05/29 05:08:28;;;;;;;6.43;5.63;;;;;;;;;;5093186;28;20292;-78
2021/05/29 05:10:55;;;;;;;7.23;6.13;;;;;;;;;;5093098;28;20212;-78
2021/05/29 05:13:23;;;;;;;7.43;6.50;;;;;;;;;;5093187;28;20205;-78
2021/05/29 05:15:50;;;;;;;7.40;6.30;;;;;;;;;;5079442;28;20205;-78
2021/05/29 05:18:17;;;;;;;8.37;6.50;;;;;;;;;;5087556;28;20222;-78
2021/05/29 05:20:43;;;;;;;8.80;6.77;;;;;;;;;;5074862;28;20229;-78
2021/05/29 05:23:11;;;;;;;7.20;6.40;;;;;;;;;;5091762;28;20289;-78
2021/05/29 05:25:38;;;;;;;9.60;7.47;;;;;;;;;;5092561;28;20214;-78
2021/05/29 05:28:05;;;;;;;9.07;7.17;;;;;;;;;;5083723;28;20653;-78
2021/05/29 05:30:32;;;;;;;8.20;7.20;;;;;;;;;;5085103;28;20298;-78
2021/05/29 05:33:03;;;;;;;9.00;7.20;;;;;;;;;;5087642;28;20666;-78
2021/05/29 05:35:30;;;;;;;8.53;6.63;;;;;;;;;;5076572;28;20585;-78
2021/05/29 05:37:56;;;;;;;8.73;6.97;;;;;;;;;;5091882;28;20242;-78
2021/05/29 05:40:24;;;;;;;11.60;7.00;;;;;;;;;;5081612;28;20282;-78
2021/05/29 05:42:51;;;;;;;8.13;6.80;;;;;;;;;;5083109;28;20218;-78
2021/05/29 05:45:18;;;;;;;8.37;7.00;;;;;;;;;;5083564;28;20252;-78
2021/05/29 05:47:45;;;;;;;8.47;6.77;;;;;;;;;;5077360;28;20349;-78
2021/05/29 05:50:12;;;;;;;10.67;6.40;;;;;;;;;;5089042;28;20223;-78
2021/05/29 05:52:40;;;;;;;9.10;5.77;;;;;;;;;;5075736;28;20672;-78
2021/05/29 05:55:07;;;;;;;6.20;5.60;;;;;;;;;;5092407;28;20539;-78
2021/05/29 05:57:35;;;;;;;7.87;5.97;;;;;;;;;;5091208;28;20281;-78
2021/05/29 06:00:02;;;;;;;6.47;5.67;;;;;;;;;;5091483;28;20194;-78
2021/05/29 06:02:29;;;;;;;6.43;5.83;;;;;;;;;;5091634;28;20682;-78
2021/05/29 06:04:56;;;;;;;6.43;5.70;;;;;;;;;;5084776;28;20289;-78
2021/05/29 06:07:22;;;;;;;7.73;5.87;;;;;;;;;;5083948;28;20277;-78
2021/05/29 06:09:49;;;;;;;6.50;5.50;;;;;;;;;;5092350;28;20313;-78
2021/05/29 06:12:16;;;;;;;7.93;6.10;;;;;;;;;;5092063;28;20241;-78
2021/05/29 06:20:22;;;;;;;8.23;5.67;;;;;;;;;;5091470;28;20266;-78
2021/05/29 06:22:49;;;;;;;8.17;6.20;;;;;;;;;;5077468;28;20658;-78
2021/05/29 06:25:16;;;;;;;6.73;5.60;;;;;;;;;;5089881;28;20289;-78
2021/05/29 06:27:43;;;;;;;6.47;5.87;;;;;;;;;;5092023;28;20249;-78
2021/05/29 06:30:12;;;;;;;10.10;5.83;;;;;;;;;;5091896;28;20313;-78
2021/05/29 06:32:39;;;;;;;6.80;6.20;;;;;;;;;;5072249;28;20333;-78
2021/05/29 06:35:07;;;;;;;7.37;6.00;;;;;;;;;;5085842;28;20228;-78
2021/05/29 06:37:35;;;;;;;7.37;6.10;;;;;;;;;;5092104;28;20325;-79
2021/05/29 06:40:02;;;;;;;6.10;5.50;;;;;;;;;;5074864;28;20195;-78
2021/05/29 06:42:29;;;;;;;8.20;5.20;;;;;;;;;;5071899;28;20249;-79
2021/05/29 06:44:55;;;;;;;6.03;5.18;;;;;;;;;;5074376;28;20278;-79
2021/05/29 06:47:23;;;;;;;6.30;5.50;;;;;;;;;;5071947;28;20295;-79
2021/05/29 06:49:50;;;;;;;5.43;4.90;;;;;;;;;;5079504;28;20717;-78
2021/05/29 06:52:19;;;;;;;7.15;5.47;;;;;;;;;;5086650;28;20250;-78
2021/05/29 06:54:55;;;;;;;6.47;5.88;;;;;;;;;;5071116;28;20693;-79
2021/05/29 07:00:08;;;;;;;6.00;5.40;;;;;;;;;;5087133;28;20707;-78
2021/05/29 07:02:36;;;;;;;6.55;5.43;;;;;;;;;;5095614;28;20251;-79
2021/05/29 07:05:05;;;;;;;6.23;5.63;;;;;;;;;;5078895;28;20199;-79
2021/05/29 07:07:31;;;;;;;6.20;5.27;;;;;;;;;;5075597;28;20206;-79
2021/05/29 07:09:58;;;;;;;8.50;5.50;;;;;;;;;;5082889;28;20258;-79
2021/05/29 07:12:25;;;;;;;6.60;5.70;;;;;;;;;;5075130;28;20237;-79
2021/05/29 07:14:52;;;;;;;7.17;5.53;;;;;;;;;;5075594;28;20294;-79
2021/05/29 07:17:19;;;;;;;6.63;5.70;;;;;;;;;;5074761;28;20285;-80
2021/05/29 07:19:46;;;;;;;7.80;5.60;;;;;;;;;;5081385;28;20195;-79
2021/05/29 07:22:13;;;;;;;7.90;5.50;;;;;;;;;;5077165;28;20623;-80
2021/05/29 07:24:40;;;;;;;5.57;5.00;;;;;;;;;;5088143;28;20292;-80
2021/05/29 07:27:06;;;;;;;6.13;5.03;;;;;;;;;;5087000;28;20264;-79
2021/05/29 07:29:33;;;;;;;6.20;5.30;;;;;;;;;;5075009;28;20310;-80
2021/05/29 07:32:00;;;;;;;5.97;5.13;;;;;;;;;;5074606;28;20230;-78
2021/05/29 07:34:26;;;;;;;6.85;4.95;;;;;;;;;;5075010;28;20630;-79
2021/05/29 07:36:54;;;;;;;6.70;4.88;;;;;;;;;;5075025;28;20298;-79
2021/05/29 07:39:21;;;;;;;5.63;5.03;;;;;;;;;;5074403;28;20827;-78
2021/05/29 07:41:47;;;;;;;5.60;4.80;;;;;;;;;;5074975;28;20286;-78
2021/05/29 07:44:14;;;;;;;7.28;5.22;;;;;;;;;;5076633;28;20294;-78
2021/05/29 07:46:41;;;;;;;9.15;4.80;;;;;;;;;;5074448;28;20223;-78
2021/05/29 07:49:08;;;;;;;5.82;4.80;;;;;;;;;;5077577;28;20258;-78
2021/05/29 07:51:36;;;;;;;5.93;4.55;;;;;;;;;;5083742;28;20285;-79
2021/05/29 07:54:04;;;;;;;6.00;4.82;;;;;;;;;;5094723;28;20195;-79
2021/05/29 07:56:30;;;;;;;6.63;4.57;;;;;;;;;;5094219;28;20285;-78
2021/05/29 07:58:59;;;;;;;6.70;4.70;;;;;;;;;;5094486;28;20285;-78
2021/05/29 08:01:26;;;;;;;5.50;4.68;;;;;;;;;;5084122;28;20203;-79
2021/05/29 08:03:52;;;;;;;5.25;4.47;;;;;;;;;;5089342;28;20198;-79
2021/05/29 08:06:21;;;;;;;8.15;5.45;;;;;;;;;;5090784;28;20194;-79
2021/05/29 08:08:48;;;;;;;7.28;4.68;;;;;;;;;;5092987;28;20206;-79
2021/05/29 08:11:17;;;;;;;6.53;4.75;;;;;;;;;;5091438;28;20281;-78
2021/05/29 08:13:44;;;;;;;7.18;4.85;;;;;;;;;;5092866;28;20194;-78
2021/05/29 08:16:13;;;;;;;6.43;4.53;;;;;;;;;;5094025;28;20677;-79
2021/05/29 08:18:39;;;;;;;6.10;4.57;;;;;;;;;;5093291;28;20628;-78
2021/05/29 08:21:06;;;;;;;8.82;4.97;;;;;;;;;;5094625;28;20240;-78
2021/05/29 08:23:33;;;;;;;5.55;4.90;;;;;;;;;;5094655;28;20281;-79
2021/05/29 08:26:00;;;;;;;8.05;5.20;;;;;;;;;;5094141;28;20321;-79
2021/05/29 08:28:27;;;;;;;5.40;4.80;;;;;;;;;;5094258;28;20221;-78
2021/05/29 08:30:54;;;;;;;6.53;4.90;;;;;;;;;;5094150;28;20942;-79
2021/05/29 08:33:21;;;;;;;5.55;4.88;;;;;;;;;;5094239;28;20545;-78
2021/05/29 08:35:48;;;;;;;8.07;5.30;;;;;;;;;;5093113;28;20194;-78
2021/05/29 08:38:15;;;;;;;5.25;4.75;;;;;;;;;;5080460;28;20323;-78
2021/05/29 08:40:41;;;;;;;8.40;5.07;;;;;;;;;;5087686;28;20281;-79
2021/05/29 08:43:08;;;;;;;6.60;5.03;;;;;;;;;;5089477;28;20230;-79
2021/05/29 08:45:37;;;;;;;5.38;4.75;;;;;;;;;;5078467;28;20237;-80
2021/05/29 08:48:04;;;;;;;6.70;5.05;;;;;;;;;;5086190;28;20246;-79
2021/05/29 08:50:30;;;;;;;6.25;4.65;;;;;;;;;;5082443;28;20635;-79
2021/05/29 08:52:57;;;;;;;8.32;5.07;;;;;;;;;;5092464;28;20206;-79
2021/05/29 08:55:24;;;;;;;8.05;4.90;;;;;;;;;;5085305;28;20234;-79
2021/05/29 08:57:51;;;;;;;7.22;4.93;;;;;;;;;;5091622;28;20677;-79
2021/05/29 09:00:19;;;;;;;7.85;5.63;;;;;;;;;;5082011;28;20199;-79
2021/05/29 09:02:57;;;;;;;7.47;5.28;;;;;;;;;;5078089;28;20286;-79
2021/05/29 09:05:33;;;;;;;7.93;5.32;;;;;;;;;;5085929;28;20234;-79
2021/05/29 09:08:04;;;;;;;7.47;5.38;;;;;;;;;;5090027;28;20670;-79
2021/05/29 09:10:31;;;;;;;5.22;4.72;;;;;;;;;;5092739;28;20642;-79
2021/05/29 09:13:02;;;;;;;5.85;5.25;;;;;;;;;;5092295;28;20230;-79
2021/05/29 09:15:48;;;;;;;6.28;4.63;;;;;;;;;;5077452;28;20286;-77
2021/05/29 09:18:37;;;;;;;5.93;5.30;;;;;;;;;;5074481;28;20251;-79
2021/05/29 09:21:25;;;;;;;6.25;4.75;;;;;;;;;;5092098;28;20206;-79
2021/05/29 09:23:53;;;;;;;5.13;4.60;;;;;;;;;;5079493;28;20206;-79
2021/05/29 09:26:22;;;;;;;5.18;4.60;;;;;;;;;;5079367;28;20292;-79
2021/05/29 09:28:49;;;;;;;5.15;4.47;;;;;;;;;;5086380;28;20222;-79
2021/05/29 09:31:16;;;;;;;4.88;4.25;;;;;;;;;;5099181;28;20198;-79
2021/05/29 09:33:45;;;;;;;7.28;4.50;;;;;;;;;;5086643;28;20223;-79
2021/05/29 09:36:12;;;;;;;5.93;4.30;;;;;;;;;;5083259;28;20246;-78
2021/05/29 09:38:40;;;;;;;4.93;4.30;;;;;;;;;;5088430;28;20317;-79
2021/05/29 09:41:18;;;;;;;5.47;4.18;;;;;;;;;;5087162;28;20570;-79
2021/05/29 09:43:58;;;;;;;5.63;3.78;;;;;;;;;;5076290;28;20233;-79
2021/05/29 09:46:25;;;;;;;5.00;3.70;;;;;;;;;;5079147;28;20202;-78
2021/05/29 09:48:55;;;;;;;4.60;3.53;;;;;;;;;;5081775;28;20230;-79
2021/05/29 09:51:21;;;;;;;6.60;3.47;;;;;;;;;;5078082;28;21128;-78
2021/05/29 09:53:49;;;;;;;3.78;3.33;;;;;;;;;;5095715;28;20679;-79
2021/05/29 09:56:31;;;;;;;3.85;3.45;;;;;;;;;;5087555;28;20336;-78
2021/05/29 09:59:01;;;;;;;5.47;3.20;;;;;;;;;;5083407;28;20642;-79
2021/05/29 10:01:39;;;;;;;3.83;3.28;;;;;;;;;;5082523;28;20282;-78
2021/05/29 10:04:07;;;;;;;5.30;3.28;;;;;;;;;;5092795;28;20225;-79
2021/05/29 10:06:34;;;;;;;4.35;3.30;;;;;;;;;;5090325;28;20221;-79
2021/05/29 10:09:01;;;;;;;3.33;3.03;;;;;;;;;;5092295;28;20230;-78
2021/05/29 10:11:28;;;;;;;3.63;3.33;;;;;;;;;;5087203;28;20206;-79
2021/05/29 10:13:55;;;;;;;4.35;3.40;;;;;;;;;;5095991;28;20201;-79
2021/05/29 10:16:22;;;;;;;4.05;3.17;;;;;;;;;;5084116;28;20597;-80
2021/05/29 10:18:49;;;;;;;3.60;3.30;;;;;;;;;;5094511;28;20259;-79
2021/05/29 10:21:17;;;;;;;3.13;2.83;;;;;;;;;;5078304;28;20273;-79
2021/05/29 10:23:46;;;;;;;3.80;2.90;;;;;;;;;;5082141;28;20240;-79
2021/05/29 10:26:13;;;;;;;2.58;2.38;;;;;;;;;;5078820;28;20230;-79
2021/05/29 10:28:40;;;;;;;3.35;2.85;;;;;;;;;;5085942;28;20311;-79
2021/05/29 10:31:07;;;;;;;3.17;2.85;;;;;;;;;;5054123;28;20242;-79
2021/05/29 10:33:39;;;;;;;3.63;2.70;;;;;;;;;;5090362;28;20801;-79
2021/05/29 10:36:06;;;;;;;3.03;2.72;;;;;;;;;;5081120;28;20202;-79
2021/05/29 10:38:44;;;;;;;3.45;2.65;;;;;;;;;;5080345;28;20229;-79
2021/05/29 10:41:11;;;;;;;3.67;3.15;;;;;;;;;;5072775;28;20634;-78
2021/05/29 10:43:38;;;;;;;3.70;3.30;;;;;;;;;;5081973;28;20232;-78
2021/05/29 10:46:10;;;;;;;5.05;3.05;;;;;;;;;;5084912;28;20283;-79
2021/05/29 10:48:44;;;;;;;4.70;3.10;;;;;;;;;;5078359;28;20832;-80
2021/05/29 10:51:12;;;;;;;3.78;2.97;;;;;;;;;;5094623;28;20253;-80
2021/05/29 10:53:47;;;;;;;3.30;3.00;;;;;;;;;;5080427;28;20225;-79
2021/05/29 10:56:26;;;;;;;3.30;3.00;;;;;;;;;;5085604;28;20202;-79
2021/05/29 10:58:57;;;;;;;3.60;2.83;;;;;;;;;;5078922;28;20194;-78
2021/05/29 11:01:45;;;;;;;3.55;3.03;;;;;;;;;;5089566;28;20206;-79
2021/05/29 11:04:22;;;;;;;3.75;2.80;;;;;;;;;;5083305;28;20258;-79
2021/05/29 11:06:51;;;;;;;5.20;4.72;;;;;;;;;;5082730;28;20191;-79
2021/05/29 11:09:39;;;;;;;4.55;3.17;;;;;;;;;;5093033;28;20226;-79
2021/05/29 11:12:07;;;;;;;5.75;4.78;;;;;;;;;;5084362;28;20347;-79
2021/05/29 11:14:48;;;;;;;4.53;3.22;;;;;;;;;;5088288;28;20198;-79
2021/05/29 11:17:15;;;;;;;4.15;2.78;;;;;;;;;;5083116;28;20202;-79
2021/05/29 11:19:57;;;;;;;3.40;3.00;;;;;;;;;;5083670;28;20713;-79
2021/05/29 11:22:25;;;;;;;4.28;3.88;;;;;;;;;;5073807;28;20286;-79
2021/05/29 11:25:00;;;;;;;25.58;5.00;;;;;;;;;;5091606;28;20191;-79
2021/05/29 11:27:27;;;;;;;4.70;4.22;;;;;;;;;;5093974;28;20609;-79
2021/05/29 11:29:55;;;;;;;4.38;3.97;;;;;;;;;;5094205;28;20249;-79
2021/05/29 11:32:40;;;;;;;5.35;4.60;;;;;;;;;;5088729;28;20230;-79
2021/05/29 11:35:07;;;;;;;3.63;3.25;;;;;;;;;;5085781;28;20222;-79
2021/05/29 11:37:34;;;;;;;4.60;3.80;;;;;;;;;;5088610;28;20305;-79
2021/05/29 11:40:02;;;;;;;4.57;3.15;;;;;;;;;;5085787;28;20313;-79
2021/05/29 11:42:28;;;;;;;71.88;32.42;;;;;;;;;;5089104;28;20237;-79
2021/05/29 11:45:10;;;;;;;12.75;7.82;;;;;;;;;;5090492;28;20273;-79
2021/05/29 11:47:40;;;;;;;10.98;9.52;;;;;;;;;;5084976;28;20286;-79
2021/05/29 11:50:08;;;;;;;7.20;5.13;;;;;;;;;;5087981;28;20226;-80
2021/05/29 11:52:43;;;;;;;7.07;4.10;;;;;;;;;;5093226;28;20214;-79
2021/05/29 11:55:12;;;;;;;25.17;22.77;;;;;;;;;;5082162;28;20662;-79
2021/05/29 11:57:54;;;;;;;4.82;3.70;;;;;;;;;;5090962;28;20250;-80
2021/05/29 12:00:20;;;;;;;3.88;3.25;;;;;;;;;;5085602;28;20229;-80
2021/05/29 12:02:50;;;;;;;5.93;3.80;;;;;;;;;;5087992;28;20640;-80
2021/05/29 12:05:17;;;;;;;4.82;3.63;;;;;;;;;;5087649;28;20209;-79
2021/05/29 12:07:58;;;;;;;3.90;3.38;;;;;;;;;;5085201;28;20194;-79
2021/05/29 12:10:26;;;;;;;3.78;3.20;;;;;;;;;;5074977;28;20304;-79
2021/05/29 12:12:53;;;;;;;3.83;3.40;;;;;;;;;;5084092;28;20735;-79
2021/05/29 12:15:20;;;;;;;3.75;3.35;;;;;;;;;;5073364;28;20702;-79
2021/05/29 12:17:46;;;;;;;3.63;2.83;;;;;;;;;;5073300;28;20636;-79
2021/05/29 12:20:13;;;;;;;3.85;2.83;;;;;;;;;;5089944;28;20289;-75
2021/05/29 12:22:40;;;;;;;3.10;2.90;;;;;;;;;;5075466;28;20286;-76
2021/05/29 12:25:08;;;;;;;3.20;2.83;;;;;;;;;;5072208;28;20291;-76
2021/05/29 12:27:41;;;;;;;6.65;3.03;;;;;;;;;;5075287;28;20805;-76
2021/05/29 12:30:09;;;;;;;3.40;2.83;;;;;;;;;;5090030;28;20712;-75
2021/05/29 12:32:38;;;;;;;3.00;2.78;;;;;;;;;;5078878;28;20207;-76
2021/05/29 12:35:05;;;;;;;3.33;2.65;;;;;;;;;;5080309;28;20248;-75
2021/05/29 12:37:32;;;;;;;3.92;2.70;;;;;;;;;;5079364;28;20286;-75
2021/05/29 12:40:01;;;;;;;2.65;2.33;;;;;;;;;;5074479;28;20234;-76
2021/05/29 12:42:30;;;;;;;4.35;2.25;;;;;;;;;;5081168;28;20689;-76
2021/05/29 12:44:58;;;;;;;3.70;2.58;;;;;;;;;;5085909;28;20321;-76
2021/05/29 12:47:38;;;;;;;2.72;2.53;;;;;;;;;;5086204;28;20299;-77
2021/05/29 12:50:13;;;;;;;5.35;2.60;;;;;;;;;;5091984;28;20218;-76
2021/05/29 12:52:40;;;;;;;3.90;2.78;;;;;;;;;;5094751;28;20226;-77
2021/05/29 12:55:18;;;;;;;3.42;2.50;;;;;;;;;;5087053;28;20198;-74
2021/05/29 12:57:47;;;;;;;2.63;2.28;;;;;;;;;;5087563;28;20210;-73
2021/05/29 13:00:21;;;;;;;2.53;2.33;;;;;;;;;;5089258;28;20202;-76
2021/05/29 13:08:44;;;;;;;2.63;2.42;;;;;;;;;;5086913;28;20230;-75
2021/05/29 13:11:26;;;;;;;2.55;2.30;;;;;;;;;;5072749;28;20219;-76
2021/05/29 13:13:59;;;;;;;3.03;2.50;;;;;;;;;;5087813;28;20240;-75
2021/05/29 13:16:26;;;;;;;2.92;2.33;;;;;;;;;;5092153;28;20745;-75
2021/05/29 13:19:04;;;;;;;2.63;2.00;;;;;;;;;;5085270;28;20281;-75
2021/05/29 13:21:32;;;;;;;2.95;2.17;;;;;;;;;;5075965;28;20281;-75
2021/05/29 13:24:00;;;;;;;2.33;2.13;;;;;;;;;;5089220;28;20282;-76
2021/05/29 13:26:27;;;;;;;2.38;2.13;;;;;;;;;;5086864;28;20292;-75
2021/05/29 13:28:56;;;;;;;2.92;2.63;;;;;;;;;;5075650;28;20297;-75
2021/05/29 13:31:23;;;;;;;3.25;2.20;;;;;;;;;;5091917;28;20802;-75
2021/05/29 13:33:57;;;;;;;2.58;2.38;;;;;;;;;;5079300;28;20281;-75
2021/05/29 13:36:24;;;;;;;2.85;2.42;;;;;;;;;;5091637;28;20613;-75
2021/05/29 13:38:51;;;;;;;4.05;2.40;;;;;;;;;;5090616;28;20235;-75
2021/05/29 13:41:18;;;;;;;3.33;2.63;;;;;;;;;;5092241;28;20295;-76
2021/05/29 13:43:44;;;;;;;3.55;2.72;;;;;;;;;;5091939;28;20230;-75
2021/05/29 13:46:12;;;;;;;3.13;2.67;;;;;;;;;;5092278;28;20206;-76
2021/05/29 13:48:39;;;;;;;3.30;2.58;;;;;;;;;;5085865;28;20677;-75
2021/05/29 13:51:07;;;;;;;3.08;2.78;;;;;;;;;;5091850;28;20576;-76
2021/05/29 13:53:33;;;;;;;3.47;3.10;;;;;;;;;;5088339;28;20240;-76
2021/05/29 13:56:00;;;;;;;4.13;3.10;;;;;;;;;;5073559;28;20537;-75
2021/05/29 13:58:27;;;;;;;3.38;3.08;;;;;;;;;;5092046;28;20285;-75
2021/05/29 14:00:54;;;;;;;4.25;2.80;;;;;;;;;;5092022;28;20787;-75
2021/05/29 14:03:20;;;;;;;4.90;3.10;;;;;;;;;;5084955;28;20213;-75
2021/05/29 14:05:49;;;;;;;3.67;3.30;;;;;;;;;;5091366;28;20293;-75
2021/05/29 14:08:17;;;;;;;3.90;3.40;;;;;;;;;;5076087;28;20207;-75
2021/05/29 14:10:43;;;;;;;3.78;3.35;;;;;;;;;;5086982;28;20278;-75
2021/05/29 14:13:10;;;;;;;4.07;3.58;;;22.90;99.90;;;;;;5073471;28;20921;-76
2021/05/29 14:15:37;;;;;;;4.00;3.45;;;22.80;99.90;;;;;;5080974;28;20639;-76
2021/05/29 14:18:03;;;;;;;4.35;3.70;;;22.70;99.90;;;;;;5102264;28;20198;-75
2021/05/29 14:20:30;;;;;;;5.70;3.60;;;22.80;99.90;;;;;;5073959;28;20148;-76
2021/05/29 14:22:58;;;;;;;4.30;3.63;;;23.00;99.90;;;;;;5090115;28;20241;-74
2021/05/29 14:25:25;;;;;;;4.30;3.47;;;23.30;99.90;;;;;;5084109;28;20686;-74
2021/05/29 14:27:51;;;;;;;4.07;3.28;;;23.20;99.90;;;;;;5086615;28;20254;-74
2021/05/29 14:30:19;;;;;;;5.57;3.38;;;23.70;99.90;;;;;;5085217;28;20324;-75
2021/05/29 14:32:45;;;;;;;3.42;3.13;;;23.80;99.90;;;;;;5088699;28;20237;-75
2021/05/29 14:35:12;;;;;;;3.53;3.10;;;23.70;99.90;;;;;;5090046;28;20284;-75
2021/05/29 14:37:38;;;;;;;4.15;3.20;;;23.80;99.90;;;;;;5070529;28;20402;-75
2021/05/29 14:40:06;;;;;;;4.03;3.33;;;23.80;99.90;;;;;;5090470;28;20334;-76
2021/05/29 14:42:35;;;;;;;3.92;3.28;;;23.40;99.90;;;;;;5090475;28;20232;-75
2021/05/29 14:45:02;;;;;;;3.70;3.17;;;23.10;99.90;;;;;;5081742;28;20213;-76
2021/05/29 14:47:29;;;;;;;3.70;3.40;;;23.20;99.90;;;;;;5088012;28;20679;-74
2021/05/29 14:49:55;;;;;;;4.82;3.20;;;23.50;99.90;;;;;;5083167;28;20219;-75
2021/05/29 14:52:24;;;;;;;4.47;3.42;;;24.00;99.90;;;;;;5085896;28;20227;-75
2021/05/29 14:54:51;;;;;;;3.40;3.10;;;23.80;99.90;;;;;;5078576;28;20198;-75
2021/05/29 14:57:17;;;;;;;4.35;3.58;;;23.70;99.90;;;;;;5083866;28;20281;-75